Time;durP1;ratioP1;P1;durP2;ratioP2;P2;SDS_P1;SDS_P2;PMS_P1;PMS_P2;Temp;Humidity;BMP_temperature;BMP_pressure;BME280_temperature;BME280_humidity;BME280_pressure;Samples;Min_cycle;Max_cycle;Signal;HPM_P1;HPM_P2
2023/05/05 00:00:44;;;;;;;;;;;;;;;18.14;47.09;101113.19;1249563;23;1022;-79
2023/05/05 00:01:34;;;;;;;;;;;;;;;18.03;47.72;101107.94;1250974;23;672;-79
2023/05/05 00:02:25;;;;;;;;;;;;;;;18.10;47.04;101109.06;1251265;23;605;-79
2023/05/05 00:03:15;;;;;;;;;;;;;;;18.15;47.20;101114.03;1251044;23;715;-79
2023/05/05 00:04:06;;;;;;;;;;;;;;;18.08;47.91;101110.22;1251313;23;606;-79
2023/05/05 00:04:56;;;;;;;;;;;;;;;18.08;47.35;101110.22;1251172;23;653;-78
2023/05/05 00:05:47;;;;;;;;;;;;;;;18.11;47.37;101102.69;1251429;23;711;-78
2023/05/05 00:06:37;;;;;;;;;;;;;;;18.27;47.00;101108.34;1251206;23;610;-78
2023/05/05 00:07:28;;;;;;;;;;;;;;;18.37;46.51;101095.72;1251387;23;692;-78
2023/05/05 00:08:18;;;;;;;;;;;;;;;18.47;46.28;101095.69;1251247;23;629;-77
2023/05/05 00:09:08;;;;;;;;;;;;;;;18.53;46.28;101095.13;1251038;23;629;-78
2023/05/05 00:09:59;;;;;;;;;;;;;;;18.58;46.76;101097.41;1251314;23;598;-78
2023/05/05 00:10:49;;;;;;;;;;;;;;;18.60;46.14;101096.31;1251169;23;708;-77
2023/05/05 00:11:40;;;;;;;;;;;;;;;18.63;47.00;101095.16;1251352;23;608;-76
2023/05/05 00:12:30;;;;;;;;;;;;;;;18.64;46.46;101097.69;1246537;23;661;-77
2023/05/05 00:13:21;;;;;;;;;;;;;;;18.65;46.32;101093.13;1251334;23;646;-77
2023/05/05 00:14:11;;;;;;;;;;;;;;;18.66;45.97;101093.00;1251239;23;642;-77
2023/05/05 00:15:02;;;;;;;;;;;;;;;18.66;46.29;101092.13;1251192;23;653;-77
2023/05/05 00:15:52;;;;;;;;;;;;;;;18.65;46.76;101090.44;1251368;23;638;-77
2023/05/05 00:16:43;;;;;;;;;;;;;;;18.66;46.40;101087.59;1251454;23;849;-77
2023/05/05 00:17:33;;;;;;;;;;;;;;;18.66;47.17;101089.44;1251170;23;799;-77
2023/05/05 00:18:24;;;;;;;;;;;;;;;18.68;46.17;101087.44;1251395;23;658;-77
2023/05/05 00:19:14;;;;;;;;;;;;;;;18.67;46.27;101081.19;1251182;23;664;-77
2023/05/05 00:20:04;;;;;;;;;;;;;;;18.67;45.97;101074.94;1251033;23;678;-77
2023/05/05 00:20:55;;;;;;;;;;;;;;;18.68;46.73;101082.91;1251390;23;649;-77
2023/05/05 00:21:45;;;;;;;;;;;;;;;18.68;47.15;101084.75;1251228;23;646;-77
2023/05/05 00:22:36;;;;;;;;;;;;;;;18.69;46.09;101081.91;1251397;23;614;-77
2023/05/05 00:23:26;;;;;;;;;;;;;;;18.69;46.49;101084.59;1251157;23;628;-77
2023/05/05 00:24:17;;;;;;;;;;;;;;;18.70;46.33;101085.47;1251228;23;673;-77
2023/05/05 00:25:07;;;;;;;;;;;;;;;18.68;46.40;101088.31;1251191;23;786;-77
2023/05/05 00:25:58;;;;;;;;;;;;;;;18.69;47.26;101089.16;1251288;23;598;-77
2023/05/05 00:26:48;;;;;;;;;;;;;;;18.68;46.20;101090.16;1251187;23;955;-78
2023/05/05 00:27:38;;;;;;;;;;;;;;;18.64;46.38;101088.72;1251037;23;617;-77
2023/05/05 00:28:29;;;;;;;;;;;;;;;18.66;46.61;101084.03;1251141;23;633;-78
2023/05/05 00:29:19;;;;;;;;;;;;;;;18.67;46.34;101085.75;1251027;23;643;-77
2023/05/05 00:30:10;;;;;;;;;;;;;;;18.66;46.76;101079.50;1251001;23;1881;-77
2023/05/05 00:31:01;;;;;;;;;;;;;;;18.67;46.50;101091.16;1251064;23;677;-77
2023/05/05 00:31:51;;;;;;;;;;;;;;;18.65;46.90;101090.44;1251270;23;630;-76
2023/05/05 00:32:41;;;;;;;;;;;;;;;18.67;46.97;101091.16;1251079;23;625;-76
2023/05/05 00:33:32;;;;;;;;;;;;;;;18.65;47.04;101091.28;1251229;23;626;-75
2023/05/05 00:34:22;;;;;;;;;;;;;;;18.63;47.18;101081.66;1249954;23;820;-75
2023/05/05 00:35:13;;;;;;;;;;;;;;;18.61;46.79;101089.06;1251351;23;689;-75
2023/05/05 00:36:03;;;;;;;;;;;;;;;18.59;46.61;101085.66;1247562;23;741;-76
2023/05/05 00:36:53;;;;;;;;;;;;;;;18.60;46.96;101084.66;1247800;23;666;-76
2023/05/05 00:37:44;;;;;;;;;;;;;;;18.57;47.27;101082.19;1247793;23;604;-76
2023/05/05 00:38:34;;;;;;;;;;;;;;;18.51;47.85;101080.06;1251137;23;590;-75
2023/05/05 00:39:25;;;;;;;;;;;;;;;18.52;47.32;101085.31;1251180;23;622;-76
2023/05/05 00:40:17;;;;;;;;;;;;;;;18.45;47.16;101084.19;1251047;23;677;-75
2023/05/05 00:41:07;;;;;;;;;;;;;;;18.44;47.31;101081.66;1250974;23;614;-76
2023/05/05 00:41:58;;;;;;;;;;;;;;;18.49;46.85;101082.91;1251166;23;653;-75
2023/05/05 00:42:49;;;;;;;;;;;;;;;18.49;47.84;101092.84;1251045;23;672;-76
2023/05/05 00:43:40;;;;;;;;;;;;;;;18.37;47.95;101084.94;1251079;23;881;-78
2023/05/05 00:44:30;;;;;;;;;;;;;;;18.35;47.65;101083.38;1251118;23;665;-76
2023/05/05 00:45:21;;;;;;;;;;;;;;;18.34;47.77;101079.81;1251148;23;664;-78
2023/05/05 00:46:11;;;;;;;;;;;;;;;18.33;48.00;101079.97;1247201;23;1243;-80
2023/05/05 00:47:01;;;;;;;;;;;;;;;18.25;48.54;101078.00;1247659;23;711;-76
2023/05/05 00:47:52;;;;;;;;;;;;;;;18.22;48.99;101086.38;1248013;23;717;-77
2023/05/05 00:48:43;;;;;;;;;;;;;;;18.13;48.21;101079.13;1251191;23;657;-77
2023/05/05 00:49:33;;;;;;;;;;;;;;;18.20;48.57;101085.66;1250998;23;633;-76
2023/05/05 00:50:24;;;;;;;;;;;;;;;18.15;49.05;101076.28;1251199;23;1909;-76
2023/05/05 00:51:14;;;;;;;;;;;;;;;18.10;48.93;101083.94;1247405;23;615;-76
2023/05/05 00:52:08;;;;;;;;;;;;;;;18.02;49.14;101082.81;1247318;23;899;-75
2023/05/05 00:52:58;;;;;;;;;;;;;;;18.10;48.71;101074.00;1247929;23;635;-76
2023/05/05 00:53:48;;;;;;;;;;;;;;;18.13;48.83;101073.72;1247599;23;619;-75
2023/05/05 00:54:39;;;;;;;;;;;;;;;18.09;49.58;101085.81;1247358;23;642;-75
2023/05/05 00:55:29;;;;;;;;;;;;;;;18.03;49.09;101079.13;1247970;23;648;-75
2023/05/05 00:56:20;;;;;;;;;;;;;;;17.97;49.44;101077.00;1250661;23;622;-75
2023/05/05 00:57:11;;;;;;;;;;;;;;;18.09;48.73;101085.81;1251169;23;642;-75
2023/05/05 00:58:04;;;;;;;;;;;;;;;18.19;48.39;101078.56;1248712;23;697;-75
2023/05/05 00:58:55;;;;;;;;;;;;;;;18.16;48.92;101076.13;1250858;23;677;-75
2023/05/05 00:59:45;;;;;;;;;;;;;;;18.13;49.11;101080.97;1251126;23;676;-75
2023/05/05 01:00:36;;;;;;;;;;;;;;;18.10;49.52;101075.84;1251392;23;645;-75
2023/05/05 01:01:26;;;;;;;;;;;;;;;17.97;50.25;101068.91;1251074;23;657;-76
2023/05/05 01:02:17;;;;;;;;;;;;;;;17.98;49.43;101069.75;1249332;23;661;-76
2023/05/05 01:03:08;;;;;;;;;;;;;;;17.94;50.28;101068.31;1251216;23;602;-75
2023/05/05 01:03:58;;;;;;;;;;;;;;;17.88;50.23;101067.06;1251089;23;598;-76
2023/05/05 01:04:49;;;;;;;;;;;;;;;17.84;50.37;101071.03;1251341;23;578;-76
2023/05/05 01:05:40;;;;;;;;;;;;;;;17.85;50.26;101071.88;1251012;23;638;-75
2023/05/05 01:06:30;;;;;;;;;;;;;;;17.84;51.04;101071.03;1251111;23;614;-74
2023/05/05 01:07:21;;;;;;;;;;;;;;;17.79;51.21;101069.75;1249366;23;661;-74
2023/05/05 01:08:11;;;;;;;;;;;;;;;17.82;51.31;101074.84;1250919;23;594;-75
2023/05/05 01:09:03;;;;;;;;;;;;;;;17.77;51.66;101071.72;1249415;23;689;-75
2023/05/05 01:09:53;;;;;;;;;;;;;;;17.77;51.15;101063.63;1247389;23;650;-77
2023/05/05 01:10:43;;;;;;;;;;;;;;;17.73;51.03;101063.09;1247115;23;674;-76
2023/05/05 01:11:34;;;;;;;;;;;;;;;17.73;52.12;101063.09;1247651;23;661;-76
2023/05/05 01:12:24;;;;;;;;;;;;;;;17.73;51.92;101060.41;1250947;23;696;-76
2023/05/05 01:13:15;;;;;;;;;;;;;;;17.73;52.19;101067.63;1251043;23;657;-75
2023/05/05 01:14:05;;;;;;;;;;;;;;;17.69;52.47;101069.75;1250985;23;658;-76
2023/05/05 01:14:56;;;;;;;;;;;;;;;17.67;52.22;101069.03;1251186;23;673;-76
2023/05/05 01:15:46;;;;;;;;;;;;;;;17.63;52.97;101062.19;1251167;23;614;-76
2023/05/05 01:16:36;;;;;;;;;;;;;;;17.70;51.30;101060.66;1250815;23;693;-75
2023/05/05 01:17:27;;;;;;;;;;;;;;;17.71;52.83;101059.69;1251119;23;626;-76
2023/05/05 01:18:17;;;;;;;;;;;;;;;17.73;52.18;101057.69;1250812;23;685;-75
2023/05/05 01:19:08;;;;;;;;;;;;;;;17.73;52.64;101063.09;1251258;23;623;-75
2023/05/05 01:19:58;;;;;;;;;;;;;;;17.67;52.73;101056.41;1251032;23;666;-74
2023/05/05 01:20:49;;;;;;;;;;;;;;;17.71;52.31;101054.28;1251098;23;641;-75
2023/05/05 01:21:40;;;;;;;;;;;;;;;17.77;51.28;101059.09;1250883;23;653;-75
2023/05/05 01:22:30;;;;;;;;;;;;;;;17.81;52.62;101059.69;1246937;23;630;-75
2023/05/05 01:23:21;;;;;;;;;;;;;;;17.72;52.81;101066.78;1247368;23;655;-75
2023/05/05 01:24:11;;;;;;;;;;;;;;;17.63;53.56;101057.63;1247022;23;623;-75
2023/05/05 01:25:01;;;;;;;;;;;;;;;17.59;53.72;101061.59;1247306;23;682;-75
2023/05/05 01:25:52;;;;;;;;;;;;;;;17.55;53.20;101064.72;1247268;23;607;-76
2023/05/05 01:26:42;;;;;;;;;;;;;;;17.52;53.31;101065.84;1247345;23;706;-76
2023/05/05 01:27:33;;;;;;;;;;;;;;;17.55;53.35;101065.59;1247935;23;658;-76
2023/05/05 01:28:23;;;;;;;;;;;;;;;17.48;54.80;101059.03;1251063;23;653;-76
2023/05/05 01:29:13;;;;;;;;;;;;;;;17.54;53.74;101061.19;1250821;23;669;-76
2023/05/05 01:30:04;;;;;;;;;;;;;;;17.54;54.17;101068.41;1247300;23;666;-75
2023/05/05 01:30:54;;;;;;;;;;;;;;;17.50;54.25;101064.28;1249809;23;696;-74
2023/05/05 01:31:50;;;;;;;;;;;;;;;17.54;52.58;101073.81;1249915;23;606;-74
2023/05/05 01:32:40;;;;;;;;;;;;;;;17.63;52.54;101068.41;1249290;23;658;-74
2023/05/05 01:33:31;;;;;;;;;;;;;;;17.67;54.59;101077.13;1250979;23;635;-74
2023/05/05 01:34:21;;;;;;;;;;;;;;;17.63;54.00;101075.66;1251031;23;670;-74
2023/05/05 01:35:11;;;;;;;;;;;;;;;17.65;53.14;101082.66;1250978;23;642;-75
2023/05/05 01:36:02;;;;;;;;;;;;;;;17.68;52.51;101079.69;1247240;23;635;-75
2023/05/05 01:36:52;;;;;;;;;;;;;;;17.78;51.71;101068.91;1247559;23;631;-75
2023/05/05 01:37:43;;;;;;;;;;;;;;;17.78;53.31;101070.72;1247992;23;657;-75
2023/05/05 01:38:33;;;;;;;;;;;;;;;17.76;53.00;101073.56;1250962;23;637;-75
2023/05/05 01:39:23;;;;;;;;;;;;;;;17.73;52.57;101073.88;1246591;23;654;-76
2023/05/05 01:40:14;;;;;;;;;;;;;;;17.76;52.59;101073.56;1251056;23;643;-74
2023/05/05 01:41:05;;;;;;;;;;;;;;;17.83;51.92;101069.34;1251015;23;646;-75
2023/05/05 01:41:55;;;;;;;;;;;;;;;17.91;51.24;101074.88;1247400;23;610;-75
2023/05/05 01:42:46;;;;;;;;;;;;;;;17.99;50.61;101074.16;1247143;23;615;-75
2023/05/05 01:43:36;;;;;;;;;;;;;;;18.03;51.44;101064.78;1247596;23;626;-75
2023/05/05 01:44:27;;;;;;;;;;;;;;;18.04;52.03;101077.28;1250808;23;617;-75
2023/05/05 01:45:17;;;;;;;;;;;;;;;18.00;51.41;101067.78;1251013;23;661;-76
2023/05/05 01:46:07;;;;;;;;;;;;;;;18.03;51.18;101070.19;1250766;23;1160;-75
2023/05/05 01:46:58;;;;;;;;;;;;;;;18.09;50.37;101075.03;1251146;23;577;-75
2023/05/05 01:47:49;;;;;;;;;;;;;;;18.11;50.43;101074.84;1251252;23;676;-75
2023/05/05 01:48:40;;;;;;;;;;;;;;;18.10;50.95;101074.00;1250970;23;700;-75
2023/05/05 01:49:30;;;;;;;;;;;;;;;18.09;52.96;101085.81;1251074;23;597;-75
2023/05/05 01:50:20;;;;;;;;;;;;;;;17.98;53.13;101088.63;1250734;23;1944;-77
2023/05/05 01:51:11;;;;;;;;;;;;;;;17.89;52.57;101086.81;1247242;23;646;-76
2023/05/05 01:52:02;;;;;;;;;;;;;;;17.84;53.49;101089.06;1247370;23;630;-76
2023/05/05 01:52:53;;;;;;;;;;;;;;;17.81;53.72;101092.88;1249809;23;661;-76
2023/05/05 01:53:45;;;;;;;;;;;;;;;17.84;53.12;101091.75;1249047;23;706;-76
2023/05/05 01:54:36;;;;;;;;;;;;;;;17.83;52.40;101095.44;1249394;23;767;-77
2023/05/05 01:55:26;;;;;;;;;;;;;;;17.82;52.77;101096.44;1250970;23;668;-76
2023/05/05 01:56:17;;;;;;;;;;;;;;;17.81;54.09;101108.19;1249242;23;653;-76
2023/05/05 01:57:07;;;;;;;;;;;;;;;17.83;52.61;101095.44;1250966;23;613;-76
2023/05/05 01:57:58;;;;;;;;;;;;;;;17.87;52.92;101102.25;1247656;23;627;-75
2023/05/05 01:58:48;;;;;;;;;;;;;;;17.94;51.51;101104.25;1249845;23;654;-75
2023/05/05 01:59:38;;;;;;;;;;;;;;;18.01;51.72;101099.13;1249844;23;665;-75
2023/05/05 02:00:29;;;;;;;;;;;;;;;18.03;52.77;101098.00;1254828;23;658;-76
2023/05/05 02:01:20;;;;;;;;;;;;;;;17.99;53.00;101101.13;1253410;23;698;-76
2023/05/05 02:02:11;;;;;;;;;;;;;;;17.91;53.37;101095.59;1247917;23;634;-76
2023/05/05 02:03:02;;;;;;;;;;;;;;;17.86;53.01;101101.41;1251044;23;629;-76
2023/05/05 02:03:53;;;;;;;;;;;;;;;17.90;52.18;101110.94;1249327;23;606;-76
2023/05/05 02:04:43;;;;;;;;;;;;;;;17.83;54.64;101109.78;1251010;23;590;-76
2023/05/05 02:05:34;;;;;;;;;;;;;;;17.78;54.13;101105.78;1247578;23;670;-76
2023/05/05 02:06:25;;;;;;;;;;;;;;;17.81;53.46;101113.59;1248077;23;614;-76
2023/05/05 02:07:15;;;;;;;;;;;;;;;17.85;52.95;101120.41;1247866;23;654;-76
2023/05/05 02:08:06;;;;;;;;;;;;;;;17.79;54.83;101116.44;1250914;23;626;-75
2023/05/05 02:08:57;;;;;;;;;;;;;;;17.80;53.15;101117.28;1250933;23;622;-76
2023/05/05 02:09:47;;;;;;;;;;;;;;;17.83;53.90;101123.25;1250969;23;665;-76
2023/05/05 02:10:39;;;;;;;;;;;;;;;17.79;54.71;101119.13;1250695;23;1925;-75
2023/05/05 02:11:30;;;;;;;;;;;;;;;17.66;55.25;101111.31;1250863;23;645;-76
2023/05/05 02:12:20;;;;;;;;;;;;;;;17.60;55.94;101095.66;1250849;23;626;-77
2023/05/05 02:13:14;;;;;;;;;;;;;;;17.58;55.36;101094.94;1250893;23;657;-76
2023/05/05 02:14:04;;;;;;;;;;;;;;;17.61;55.09;101083.88;1250791;23;652;-75
2023/05/05 02:14:55;;;;;;;;;;;;;;;17.59;55.76;101083.16;1250780;23;654;-75
2023/05/05 02:15:45;;;;;;;;;;;;;;;17.58;55.99;101076.06;1250985;23;625;-74
2023/05/05 02:16:36;;;;;;;;;;;;;;;17.57;56.60;101079.75;1247085;23;655;-75
2023/05/05 02:17:26;;;;;;;;;;;;;;;17.53;57.03;101081.03;1250949;23;629;-74
2023/05/05 02:18:17;;;;;;;;;;;;;;;17.49;57.15;101098.47;1250831;23;633;-75
2023/05/05 02:19:07;;;;;;;;;;;;;;;17.50;55.70;101093.94;1250995;23;622;-76
2023/05/05 02:19:58;;;;;;;;;;;;;;;17.56;55.21;101091.50;1251095;23;657;-76
2023/05/05 02:20:48;;;;;;;;;;;;;;;17.60;55.02;101094.78;1246723;23;674;-76
2023/05/05 02:21:39;;;;;;;;;;;;;;;17.65;55.48;101097.97;1250974;23;613;-77
2023/05/05 02:22:30;;;;;;;;;;;;;;;17.68;54.95;101098.53;1250813;23;669;-77
2023/05/05 02:23:20;;;;;;;;;;;;;;;17.73;54.42;101102.66;1250285;23;727;-76
2023/05/05 02:24:11;;;;;;;;;;;;;;;17.80;54.05;101101.09;1251095;23;658;-77
2023/05/05 02:25:02;;;;;;;;;;;;;;;17.88;53.31;101099.44;1250968;23;624;-77
2023/05/05 02:25:52;;;;;;;;;;;;;;;17.95;53.06;101105.94;1251190;23;676;-76
2023/05/05 02:26:43;;;;;;;;;;;;;;;17.98;53.43;101097.56;1250843;23;670;-76
2023/05/05 02:27:33;;;;;;;;;;;;;;;17.97;52.70;101098.56;1250966;23;649;-77
2023/05/05 02:28:23;;;;;;;;;;;;;;;18.00;52.83;101095.59;1247360;23;650;-77
2023/05/05 02:29:14;;;;;;;;;;;;;;;18.00;53.24;101097.44;1247122;23;631;-77
2023/05/05 02:30:05;;;;;;;;;;;;;;;18.01;52.49;101091.91;1247671;23;615;-77
2023/05/05 02:30:56;;;;;;;;;;;;;;;18.03;53.17;101094.47;1250906;23;791;-76
2023/05/05 02:31:46;;;;;;;;;;;;;;;18.02;52.47;101090.06;1250941;23;726;-77
2023/05/05 02:32:37;;;;;;;;;;;;;;;18.02;52.62;101092.75;1250857;23;681;-77
2023/05/05 02:33:27;;;;;;;;;;;;;;;18.01;53.22;101091.06;1247146;23;639;-77
2023/05/05 02:34:18;;;;;;;;;;;;;;;17.97;54.35;101092.31;1247470;23;694;-77
2023/05/05 02:35:08;;;;;;;;;;;;;;;17.93;53.51;101090.91;1249694;23;669;-76
2023/05/05 02:35:58;;;;;;;;;;;;;;;17.92;53.62;101091.88;1248978;23;693;-76
2023/05/05 02:36:49;;;;;;;;;;;;;;;17.90;53.51;101093.91;1249328;23;665;-76
2023/05/05 02:37:39;;;;;;;;;;;;;;;17.88;53.65;101093.19;1246469;23;667;-77
2023/05/05 02:38:30;;;;;;;;;;;;;;;17.92;53.29;101089.19;1250724;23;660;-77
2023/05/05 02:39:20;;;;;;;;;;;;;;;17.85;55.79;101083.53;1250991;23;626;-76
2023/05/05 02:40:11;;;;;;;;;;;;;;;17.81;55.21;101090.19;1250850;23;681;-77
2023/05/05 02:41:01;;;;;;;;;;;;;;;17.66;57.27;101095.13;1251033;23;680;-77
2023/05/05 02:41:52;;;;;;;;;;;;;;;17.60;55.63;101087.56;1250911;23;701;-76
2023/05/05 02:42:42;;;;;;;;;;;;;;;17.67;54.56;101091.44;1250983;23;680;-77
2023/05/05 02:43:33;;;;;;;;;;;;;;;17.78;53.85;101098.53;1247054;23;784;-77
2023/05/05 02:44:23;;;;;;;;;;;;;;;17.84;53.76;101092.59;1251064;23;646;-77
2023/05/05 02:45:13;;;;;;;;;;;;;;;17.90;53.78;101091.19;1250850;23;680;-77
2023/05/05 02:46:04;;;;;;;;;;;;;;;17.89;54.27;101090.34;1251099;23;637;-77
2023/05/05 02:46:54;;;;;;;;;;;;;;;17.90;53.73;101092.06;1250970;23;675;-77
2023/05/05 02:47:45;;;;;;;;;;;;;;;17.93;53.50;101088.19;1251167;23;658;-76
2023/05/05 02:48:35;;;;;;;;;;;;;;;17.89;54.26;101084.09;1250930;23;661;-77
2023/05/05 02:49:26;;;;;;;;;;;;;;;17.79;56.22;101083.22;1250753;23;652;-76
2023/05/05 02:50:16;;;;;;;;;;;;;;;17.63;57.04;101084.59;1250887;23;1965;-76
2023/05/05 02:51:07;;;;;;;;;;;;;;;17.61;54.79;101085.72;1250838;23;618;-76
2023/05/05 02:51:57;;;;;;;;;;;;;;;17.64;55.44;101085.47;1250483;23;936;-76
2023/05/05 02:52:47;;;;;;;;;;;;;;;17.52;57.63;101087.41;1251138;23;776;-77
2023/05/05 02:53:38;;;;;;;;;;;;;;;17.46;57.59;101084.41;1248901;23;670;-76
2023/05/05 02:54:28;;;;;;;;;;;;;;;17.31;58.35;101086.66;1251206;23;645;-75
2023/05/05 02:55:19;;;;;;;;;;;;;;;17.27;57.31;101086.06;1251171;23;645;-76
2023/05/05 02:56:10;;;;;;;;;;;;;;;17.30;57.11;101087.63;1251319;23;642;-75
2023/05/05 02:57:00;;;;;;;;;;;;;;;17.24;58.73;101090.88;1251435;23;637;-76
2023/05/05 02:57:51;;;;;;;;;;;;;;;17.24;57.58;101093.56;1251295;23;606;-75
2023/05/05 02:58:42;;;;;;;;;;;;;;;17.37;57.69;101093.34;1251322;23;641;-75
2023/05/05 02:59:33;;;;;;;;;;;;;;;17.34;57.89;101094.47;1251330;23;598;-75
2023/05/05 03:00:23;;;;;;;;;;;;;;;17.32;57.96;101091.03;1251341;23;609;-75
2023/05/05 03:01:13;;;;;;;;;;;;;;;17.22;58.18;101088.31;1251211;23;626;-75
2023/05/05 03:02:04;;;;;;;;;;;;;;;17.16;59.12;101093.41;1251465;23;622;-75
2023/05/05 03:02:54;;;;;;;;;;;;;;;17.14;59.05;101087.28;1251185;23;642;-75
2023/05/05 03:03:45;;;;;;;;;;;;;;;17.23;57.66;101081.06;1251545;23;630;-75
2023/05/05 03:04:35;;;;;;;;;;;;;;;17.25;58.17;101089.88;1251216;23;641;-75
2023/05/05 03:05:26;;;;;;;;;;;;;;;17.19;58.89;101091.28;1251134;23;665;-75
2023/05/05 03:06:16;;;;;;;;;;;;;;;17.22;58.03;101090.16;1251268;23;622;-75
2023/05/05 03:07:07;;;;;;;;;;;;;;;17.21;58.27;101094.69;1251082;23;645;-75
2023/05/05 03:07:57;;;;;;;;;;;;;;;17.17;58.95;101097.81;1247570;23;635;-75
2023/05/05 03:08:48;;;;;;;;;;;;;;;17.16;58.59;101096.09;1247718;23;698;-76
2023/05/05 03:09:38;;;;;;;;;;;;;;;17.16;58.14;101090.72;1247976;23;599;-78
2023/05/05 03:10:29;;;;;;;;;;;;;;;17.10;59.21;101091.25;1251168;23;1885;-77
2023/05/05 03:11:20;;;;;;;;;;;;;;;17.07;58.87;101091.50;1248484;23;750;-78
2023/05/05 03:12:10;;;;;;;;;;;;;;;17.02;59.32;101098.13;1247460;23;626;-77
2023/05/05 03:13:00;;;;;;;;;;;;;;;17.01;58.73;101101.00;1248064;23;655;-78
2023/05/05 03:13:51;;;;;;;;;;;;;;;17.03;58.90;101101.69;1251555;23;637;-77
2023/05/05 03:14:41;;;;;;;;;;;;;;;16.98;59.44;101096.72;1251497;23;653;-77
2023/05/05 03:15:32;;;;;;;;;;;;;;;16.95;59.10;101098.84;1247924;23;674;-77
2023/05/05 03:16:23;;;;;;;;;;;;;;;16.99;59.26;101101.13;1247726;23;635;-77
2023/05/05 03:17:13;;;;;;;;;;;;;;;16.96;59.27;101101.41;1247892;23;764;-76
2023/05/05 03:18:03;;;;;;;;;;;;;;;17.00;59.23;101100.16;1251324;23;628;-75
2023/05/05 03:18:54;;;;;;;;;;;;;;;17.04;59.20;101107.94;1251140;23;602;-77
2023/05/05 03:19:44;;;;;;;;;;;;;;;17.07;58.55;101107.66;1247609;23;667;-76
2023/05/05 03:20:35;;;;;;;;;;;;;;;17.07;58.60;101111.22;1247756;23;611;-77
2023/05/05 03:21:25;;;;;;;;;;;;;;;17.11;58.62;101109.97;1247801;23;631;-77
2023/05/05 03:22:16;;;;;;;;;;;;;;;17.11;58.39;101112.66;1251249;23;664;-77
2023/05/05 03:23:06;;;;;;;;;;;;;;;16.99;58.98;101111.91;1251515;23;586;-77
2023/05/05 03:23:57;;;;;;;;;;;;;;;17.05;58.84;101115.88;1247699;23;645;-77
2023/05/05 03:24:48;;;;;;;;;;;;;;;16.99;58.91;101114.59;1247519;23;638;-76
2023/05/05 03:25:38;;;;;;;;;;;;;;;16.97;58.88;101110.31;1247982;23;683;-76
2023/05/05 03:26:29;;;;;;;;;;;;;;;16.93;59.16;101109.72;1251000;23;925;-76
2023/05/05 03:27:19;;;;;;;;;;;;;;;16.91;59.35;101109.00;1251331;23;617;-76
2023/05/05 03:28:10;;;;;;;;;;;;;;;16.87;59.37;101117.47;1251127;23;669;-76
2023/05/05 03:29:00;;;;;;;;;;;;;;;16.81;59.88;101118.88;1251283;23;618;-76
2023/05/05 03:29:51;;;;;;;;;;;;;;;16.80;59.60;101119.88;1251141;23;677;-76
2023/05/05 03:30:41;;;;;;;;;;;;;;;16.80;59.64;101122.56;1247489;23;1886;-77
2023/05/05 03:31:32;;;;;;;;;;;;;;;16.81;59.35;101118.03;1247838;23;580;-76
2023/05/05 03:32:22;;;;;;;;;;;;;;;16.83;58.95;101121.44;1250037;23;642;-76
2023/05/05 03:33:13;;;;;;;;;;;;;;;16.77;59.88;101122.81;1249212;23;603;-76
2023/05/05 03:34:03;;;;;;;;;;;;;;;16.68;60.03;101123.59;1249530;23;642;-76
2023/05/05 03:34:54;;;;;;;;;;;;;;;16.71;59.74;101123.34;1251149;23;665;-76
2023/05/05 03:35:44;;;;;;;;;;;;;;;16.71;59.62;101117.09;1246941;23;650;-76
2023/05/05 03:36:35;;;;;;;;;;;;;;;16.69;59.86;101125.31;1247817;23;638;-77
2023/05/05 03:37:25;;;;;;;;;;;;;;;16.68;59.70;101128.97;1247877;23;639;-77
2023/05/05 03:38:16;;;;;;;;;;;;;;;16.70;59.20;101126.16;1247476;23;678;-76
2023/05/05 03:39:07;;;;;;;;;;;;;;;16.70;59.23;101118.94;1251148;23;628;-76
2023/05/05 03:39:57;;;;;;;;;;;;;;;16.77;59.15;101103.97;1251292;23;609;-77
2023/05/05 03:40:48;;;;;;;;;;;;;;;16.71;59.13;101107.19;1251349;23;641;-77
2023/05/05 03:41:38;;;;;;;;;;;;;;;16.69;59.44;101101.09;1247438;23;603;-76
2023/05/05 03:42:28;;;;;;;;;;;;;;;16.73;58.81;101091.78;1247552;23;642;-76
2023/05/05 03:43:19;;;;;;;;;;;;;;;16.94;58.32;101091.75;1247627;23;607;-77
2023/05/05 03:44:09;;;;;;;;;;;;;;;17.01;58.40;101092.91;1251220;23;653;-77
2023/05/05 03:45:00;;;;;;;;;;;;;;;17.01;57.71;101098.31;1251090;23;669;-77
2023/05/05 03:45:50;;;;;;;;;;;;;;;17.00;58.16;101101.97;1251384;23;653;-76
2023/05/05 03:46:41;;;;;;;;;;;;;;;16.92;58.14;101099.09;1245201;23;688;-76
2023/05/05 03:47:31;;;;;;;;;;;;;;;16.91;58.58;101100.09;1243835;23;669;-77
2023/05/05 03:48:21;;;;;;;;;;;;;;;16.93;58.24;101104.34;1242855;23;611;-76
2023/05/05 03:49:12;;;;;;;;;;;;;;;16.84;59.12;101102.44;1242625;23;650;-77
2023/05/05 03:50:02;;;;;;;;;;;;;;;16.73;59.67;101107.06;1235920;24;631;-77
2023/05/05 03:50:53;;;;;;;;;;;;;;;16.72;58.92;101108.91;1236781;24;646;-76
2023/05/05 03:51:43;;;;;;;;;;;;;;;16.70;59.38;101110.00;1242674;23;646;-76
2023/05/05 03:52:34;;;;;;;;;;;;;;;16.64;59.71;101116.81;1242105;23;666;-76
2023/05/05 03:53:24;;;;;;;;;;;;;;;16.60;59.98;101120.69;1241985;23;1212;-76
2023/05/05 03:54:15;;;;;;;;;;;;;;;16.59;60.02;101124.38;1237191;24;686;-76
2023/05/05 03:55:06;;;;;;;;;;;;;;;16.66;58.50;101120.19;1236496;24;631;-76
2023/05/05 03:55:56;;;;;;;;;;;;;;;16.74;58.86;101120.38;1238343;23;603;-76
2023/05/05 03:56:47;;;;;;;;;;;;;;;16.82;58.19;101125.13;1238999;23;646;-76
2023/05/05 03:57:37;;;;;;;;;;;;;;;16.80;59.15;101119.88;1243287;23;662;-77
2023/05/05 03:58:28;;;;;;;;;;;;;;;16.71;59.57;101117.97;1242840;23;686;-77
2023/05/05 03:59:18;;;;;;;;;;;;;;;16.79;59.08;101126.25;1241829;23;603;-77
2023/05/05 04:00:11;;;;;;;;;;;;;;;16.80;58.44;101127.09;1242135;23;627;-76
2023/05/05 04:01:02;;;;;;;;;;;;;;;16.84;57.92;101123.97;1236829;24;635;-77
2023/05/05 04:01:53;;;;;;;;;;;;;;;16.97;57.71;101132.72;1236828;24;643;-77
2023/05/05 04:02:44;;;;;;;;;;;;;;;16.95;58.04;101134.69;1242869;23;689;-77
2023/05/05 04:03:34;;;;;;;;;;;;;;;16.95;58.27;101142.75;1241698;23;639;-77
2023/05/05 04:04:25;;;;;;;;;;;;;;;16.87;58.22;101139.00;1236106;24;631;-77
2023/05/05 04:05:15;;;;;;;;;;;;;;;16.80;58.30;101143.25;1236514;24;690;-76
2023/05/05 04:06:05;;;;;;;;;;;;;;;16.87;58.49;101134.47;1242635;23;596;-77
2023/05/05 04:06:56;;;;;;;;;;;;;;;16.82;59.00;101152.03;1240983;23;678;-77
2023/05/05 04:07:46;;;;;;;;;;;;;;;16.91;58.36;101140.47;1242103;23;607;-76
2023/05/05 04:08:37;;;;;;;;;;;;;;;16.84;58.51;101145.50;1242266;23;671;-77
2023/05/05 04:09:27;;;;;;;;;;;;;;;16.95;57.82;101142.75;1241854;23;603;-77
2023/05/05 04:10:18;;;;;;;;;;;;;;;17.04;57.54;101148.31;1242905;23;1881;-77
2023/05/05 04:11:08;;;;;;;;;;;;;;;17.14;56.84;101155.47;1243690;23;647;-76
2023/05/05 04:11:58;;;;;;;;;;;;;;;17.22;56.79;101155.63;1236799;24;639;-77
2023/05/05 04:12:49;;;;;;;;;;;;;;;17.09;57.99;101159.53;1236623;24;607;-77
2023/05/05 04:13:40;;;;;;;;;;;;;;;17.12;57.19;101161.97;1242532;23;627;-77
2023/05/05 04:14:30;;;;;;;;;;;;;;;17.18;56.61;101159.63;1241970;23;611;-77
2023/05/05 04:15:21;;;;;;;;;;;;;;;17.23;56.59;101151.09;1240959;23;646;-76
2023/05/05 04:16:12;;;;;;;;;;;;;;;17.19;56.75;101155.09;1241865;23;651;-79
2023/05/05 04:17:02;;;;;;;;;;;;;;;17.07;57.81;101161.50;1243724;23;693;-78
2023/05/05 04:17:52;;;;;;;;;;;;;;;17.04;57.47;101165.31;1241964;23;632;-77
2023/05/05 04:18:43;;;;;;;;;;;;;;;17.15;57.59;101167.09;1242283;23;635;-77
2023/05/05 04:19:33;;;;;;;;;;;;;;;17.11;57.37;101162.97;1236557;24;682;-77
2023/05/05 04:20:24;;;;;;;;;;;;;;;17.04;57.59;101165.31;1236637;24;650;-76
2023/05/05 04:21:14;;;;;;;;;;;;;;;17.07;58.07;101173.16;1242489;23;611;-77
2023/05/05 04:22:05;;;;;;;;;;;;;;;17.01;57.51;101162.94;1241997;23;685;-77
2023/05/05 04:22:55;;;;;;;;;;;;;;;17.04;57.74;101167.16;1236504;24;650;-77
2023/05/05 04:23:45;;;;;;;;;;;;;;;17.01;57.96;101173.69;1236725;24;638;-77
2023/05/05 04:24:36;;;;;;;;;;;;;;;17.01;57.97;101171.00;1242768;23;638;-77
2023/05/05 04:25:26;;;;;;;;;;;;;;;17.13;56.63;101166.38;1241771;23;643;-78
2023/05/05 04:26:17;;;;;;;;;;;;;;;17.15;56.79;101169.78;1242153;23;615;-76
2023/05/05 04:27:07;;;;;;;;;;;;;;;17.06;57.18;101165.19;1236515;24;690;-77